PWSweather.com
Personal Weather Stations
Station Observations
SHAHALMS1
Eftra, Falkenberg, HA

EftraFalkenberg, HA

Lat: 56.85, Lon: 12.65

Elevation: 140

Station Type:

http://hem.passagen.se/risarp101

High Low Average
Temperature 53.8°F12.1°C 42.3°F5.7°C 49.7°F9.8°C
Dew Point 46.5°F8.1°C 33.4°F0.8°C 38.6°F3.7°C
Winds 26.2 mph 42.2 kmh 5.2 mph 8.4 kmh 15.0 mph S24.1 kmh S
Wind Gusts 32.2 mph51.8 kmh 6.4 mph10.3 kmh 19.0 mph30.6 kmh
Humidity 79% 53% 66%
Pressure 29.89 in1012.2 mb 29.59 in1002.0 mb -
Precipitation 0.09 in2.3 mm - -
Hour Temp Dew Point Humidity Winds Wind Gusts Pressure Precip Precip Rate Daily Precip Total
12:00 AM 52.7°F11.5°C 46.4°F8.0°C 79% 11.3 mph NW18.2 kmh NW 14.0 mph22.5 kmh 29.77 in1008.1 mb 0.00 in0.0 mm 0.00 in0.0 mm 0.00 in0.0 mm
12:10 AM 52.9°F11.6°C 46.5°F8.1°C 79% 11.3 mph NW18.2 kmh NW 14.0 mph22.5 kmh 29.77 in1008.1 mb 0.00 in0.0 mm 0.00 in0.0 mm 0.00 in0.0 mm
12:20 AM 52.9°F11.6°C 46.2°F7.9°C 78% 11.3 mph NW18.2 kmh NW 14.0 mph22.5 kmh 29.77 in1008.1 mb 0.00 in0.0 mm 0.00 in0.0 mm 0.00 in0.0 mm
12:30 AM 52.9°F11.6°C 46.2°F7.9°C 78% 16.6 mph W26.7 kmh W 20.4 mph32.8 kmh 29.74 in1007.1 mb 0.00 in0.0 mm 0.00 in0.0 mm 0.00 in0.0 mm
12:40 AM 53.1°F11.7°C 46.0°F7.8°C 77% 16.6 mph W26.7 kmh W 20.4 mph32.8 kmh 29.74 in1007.1 mb 0.00 in0.0 mm 0.00 in0.0 mm 0.00 in0.0 mm
12:50 AM 53.2°F11.8°C 45.9°F7.7°C 76% 16.6 mph W26.7 kmh W 20.4 mph32.8 kmh 29.74 in1007.1 mb 0.00 in0.0 mm 0.00 in0.0 mm 0.00 in0.0 mm
01:00 AM 53.2°F11.8°C 45.9°F7.7°C 76% 16.6 mph W26.7 kmh W 20.4 mph32.8 kmh 29.80 in1009.1 mb 0.00 in0.0 mm 0.00 in0.0 mm 0.00 in0.0 mm
01:10 AM 53.2°F11.8°C 45.9°F7.7°C 76% 16.6 mph W26.7 kmh W 20.4 mph32.8 kmh 29.77 in1008.1 mb 0.00 in0.0 mm 0.00 in0.0 mm 0.00 in0.0 mm
01:20 AM 53.2°F11.8°C 45.5°F7.5°C 75% 16.6 mph W26.7 kmh W 20.4 mph32.8 kmh 29.77 in1008.1 mb 0.00 in0.0 mm 0.00 in0.0 mm 0.00 in0.0 mm
01:30 AM 53.2°F11.8°C 45.5°F7.5°C 75% 16.6 mph W26.7 kmh W 20.4 mph32.8 kmh 29.77 in1008.1 mb 0.00 in0.0 mm 0.00 in0.0 mm 0.00 in0.0 mm
01:40 AM 53.2°F11.8°C 45.5°F7.5°C 75% 5.2 mph W8.4 kmh W 6.4 mph10.3 kmh 29.74 in1007.1 mb 0.00 in0.0 mm 0.00 in0.0 mm 0.00 in0.0 mm
01:50 AM 53.1°F11.7°C 45.0°F7.2°C 74% 5.2 mph W8.4 kmh W 6.4 mph10.3 kmh 29.74 in1007.1 mb 0.00 in0.0 mm 0.00 in0.0 mm 0.00 in0.0 mm
02:00 AM 53.1°F11.7°C 45.3°F7.4°C 75% 5.2 mph W8.4 kmh W 6.4 mph10.3 kmh 29.74 in1007.1 mb 0.00 in0.0 mm 0.00 in0.0 mm 0.00 in0.0 mm
02:10 AM 53.1°F11.7°C 45.0°F7.2°C 74% 5.2 mph W8.4 kmh W 6.4 mph10.3 kmh 29.71 in1006.1 mb 0.00 in0.0 mm 0.00 in0.0 mm 0.00 in0.0 mm
02:20 AM 53.1°F11.7°C 45.3°F7.4°C 75% 5.2 mph W8.4 kmh W 6.4 mph10.3 kmh 29.71 in1006.1 mb 0.00 in0.0 mm 0.00 in0.0 mm 0.00 in0.0 mm
02:30 AM 53.2°F11.8°C 45.2°F7.3°C 74% 5.2 mph W8.4 kmh W 6.4 mph10.3 kmh 29.71 in1006.1 mb 0.00 in0.0 mm 0.00 in0.0 mm 0.00 in0.0 mm
02:40 AM 52.7°F11.5°C 43.2°F6.2°C 70% 5.2 mph W8.4 kmh W 6.4 mph10.3 kmh 29.71 in1006.1 mb 0.00 in0.0 mm 0.00 in0.0 mm 0.00 in0.0 mm
02:50 AM 52.2°F11.2°C 42.3°F5.7°C 69% 5.2 mph W8.4 kmh W 6.4 mph10.3 kmh 29.71 in1006.1 mb 0.00 in0.0 mm 0.00 in0.0 mm 0.00 in0.0 mm
03:00 AM 51.4°F10.8°C 42.0°F5.6°C 70% 5.2 mph W8.4 kmh W 6.4 mph10.3 kmh 29.68 in1005.1 mb 0.00 in0.0 mm 0.00 in0.0 mm 0.00 in0.0 mm
03:10 AM 51.1°F10.6°C 42.0°F5.6°C 71% 5.2 mph W8.4 kmh W 6.4 mph10.3 kmh 29.71 in1006.1 mb 0.00 in0.0 mm 0.00 in0.0 mm 0.00 in0.0 mm
03:20 AM 51.1°F10.6°C 42.0°F5.6°C 71% 5.2 mph W8.4 kmh W 6.4 mph10.3 kmh 29.71 in1006.1 mb 0.00 in0.0 mm 0.00 in0.0 mm 0.00 in0.0 mm
03:30 AM 51.4°F10.8°C 42.0°F5.6°C 70% 5.2 mph W8.4 kmh W 6.4 mph10.3 kmh 29.71 in1006.1 mb 0.00 in0.0 mm 0.00 in0.0 mm 0.00 in0.0 mm
03:40 AM 51.8°F11.0°C 41.9°F5.5°C 69% 5.2 mph W8.4 kmh W 6.4 mph10.3 kmh 29.68 in1005.1 mb 0.00 in0.0 mm 0.00 in0.0 mm 0.00 in0.0 mm
03:50 AM 51.3°F10.7°C 40.7°F4.8°C 67% 8.4 mph W13.5 kmh W 10.4 mph16.7 kmh 29.68 in1005.1 mb 0.00 in0.0 mm 0.00 in0.0 mm 0.00 in0.0 mm
04:00 AM 50.9°F10.5°C 41.1°F5.1°C 69% 7.6 mph W12.2 kmh W 10.4 mph16.7 kmh 29.68 in1005.1 mb 0.00 in0.0 mm 0.00 in0.0 mm 0.00 in0.0 mm
04:10 AM 51.1°F10.6°C 42.0°F5.6°C 71% 6.4 mph W10.3 kmh W 7.9 mph12.7 kmh 29.68 in1005.1 mb 0.00 in0.0 mm 0.00 in0.0 mm 0.00 in0.0 mm
04:20 AM 51.1°F10.6°C 42.0°F5.6°C 71% 6.4 mph W10.3 kmh W 7.9 mph12.7 kmh 29.68 in1005.1 mb 0.00 in0.0 mm 0.00 in0.0 mm 0.00 in0.0 mm
04:30 AM 50.9°F10.5°C 41.1°F5.1°C 69% 14.0 mph W22.5 kmh W 17.2 mph27.7 kmh 29.68 in1005.1 mb 0.00 in0.0 mm 0.00 in0.0 mm 0.00 in0.0 mm
04:40 AM 50.7°F10.4°C 40.5°F4.7°C 68% 14.0 mph W22.5 kmh W 17.2 mph27.7 kmh 29.68 in1005.1 mb 0.00 in0.0 mm 0.00 in0.0 mm 0.00 in0.0 mm
04:50 AM 50.7°F10.4°C 40.5°F4.7°C 68% 14.0 mph W22.5 kmh W 17.2 mph27.7 kmh 29.68 in1005.1 mb 0.00 in0.0 mm 0.00 in0.0 mm 0.00 in0.0 mm
05:00 AM 50.9°F10.5°C 40.3°F4.6°C 67% 14.0 mph W22.5 kmh W 17.2 mph27.7 kmh 29.68 in1005.1 mb 0.00 in0.0 mm 0.00 in0.0 mm 0.00 in0.0 mm
05:10 AM 50.9°F10.5°C 39.9°F4.4°C 66% 14.0 mph W22.5 kmh W 17.2 mph27.7 kmh 29.65 in1004.1 mb 0.00 in0.0 mm 0.00 in0.0 mm 0.00 in0.0 mm
05:20 AM 50.7°F10.4°C 39.4°F4.1°C 65% 6.4 mph W10.3 kmh W 7.9 mph12.7 kmh 29.65 in1004.1 mb 0.00 in0.0 mm 0.00 in0.0 mm 0.00 in0.0 mm
05:30 AM 50.7°F10.4°C 39.4°F4.1°C 65% 7.9 mph W12.7 kmh W 12.2 mph19.6 kmh 29.65 in1004.1 mb 0.00 in0.0 mm 0.00 in0.0 mm 0.00 in0.0 mm
05:40 AM 50.7°F10.4°C 39.4°F4.1°C 65% 9.9 mph W15.9 kmh W 12.2 mph19.6 kmh 29.65 in1004.1 mb 0.00 in0.0 mm 0.00 in0.0 mm 0.00 in0.0 mm
05:50 AM 50.5°F10.3°C 38.8°F3.8°C 64% 9.9 mph W15.9 kmh W 12.2 mph19.6 kmh 29.65 in1004.1 mb 0.00 in0.0 mm 0.00 in0.0 mm 0.00 in0.0 mm
06:00 AM 50.7°F10.4°C 38.6°F3.7°C 63% 9.9 mph W15.9 kmh W 12.2 mph19.6 kmh 29.62 in1003.0 mb 0.00 in0.0 mm 0.00 in0.0 mm 0.00 in0.0 mm
06:10 AM 50.9°F10.5°C 38.3°F3.5°C 62% 9.9 mph W15.9 kmh W 12.2 mph19.6 kmh 29.65 in1004.1 mb 0.00 in0.0 mm 0.00 in0.0 mm 0.00 in0.0 mm
06:20 AM 50.9°F10.5°C 38.7°F3.7°C 63% 9.9 mph W15.9 kmh W 12.2 mph19.6 kmh 29.65 in1004.1 mb 0.00 in0.0 mm 0.00 in0.0 mm 0.00 in0.0 mm
06:30 AM 50.7°F10.4°C 38.6°F3.7°C 63% 9.9 mph W15.9 kmh W 12.2 mph19.6 kmh 29.65 in1004.1 mb 0.00 in0.0 mm 0.00 in0.0 mm 0.00 in0.0 mm
06:40 AM 50.5°F10.3°C 38.0°F3.3°C 62% 9.9 mph W15.9 kmh W 12.2 mph19.6 kmh 29.65 in1004.1 mb 0.00 in0.0 mm 0.00 in0.0 mm 0.00 in0.0 mm
06:50 AM 50.7°F10.4°C 37.8°F3.2°C 61% 9.9 mph W15.9 kmh W 12.2 mph19.6 kmh 29.65 in1004.1 mb 0.00 in0.0 mm 0.00 in0.0 mm 0.00 in0.0 mm
07:00 AM 50.9°F10.5°C 37.5°F3.1°C 60% 9.9 mph W15.9 kmh W 12.2 mph19.6 kmh 29.62 in1003.0 mb 0.00 in0.0 mm 0.00 in0.0 mm 0.00 in0.0 mm
07:10 AM 50.9°F10.5°C 37.5°F3.1°C 60% 9.9 mph W15.9 kmh W 12.2 mph19.6 kmh 29.62 in1003.0 mb 0.00 in0.0 mm 0.00 in0.0 mm 0.00 in0.0 mm
07:20 AM 51.1°F10.6°C 37.2°F2.9°C 59% 9.9 mph W15.9 kmh W 12.2 mph19.6 kmh 29.62 in1003.0 mb 0.00 in0.0 mm 0.00 in0.0 mm 0.00 in0.0 mm
07:30 AM 51.3°F10.7°C 37.4°F3.0°C 59% 9.9 mph W15.9 kmh W 12.2 mph19.6 kmh 29.62 in1003.0 mb 0.00 in0.0 mm 0.00 in0.0 mm 0.00 in0.0 mm
07:40 AM 51.4°F10.8°C 37.6°F3.1°C 59% 9.9 mph W15.9 kmh W 12.2 mph19.6 kmh 29.65 in1004.1 mb 0.00 in0.0 mm 0.00 in0.0 mm 0.00 in0.0 mm
07:50 AM 51.6°F10.9°C 37.7°F3.2°C 59% 9.9 mph W15.9 kmh W 12.2 mph19.6 kmh 29.65 in1004.1 mb 0.00 in0.0 mm 0.00 in0.0 mm 0.00 in0.0 mm
08:00 AM 52.2°F11.2°C 38.3°F3.5°C 59% 9.9 mph W15.9 kmh W 12.2 mph19.6 kmh 29.65 in1004.1 mb 0.00 in0.0 mm 0.00 in0.0 mm 0.00 in0.0 mm
08:10 AM 52.2°F11.2°C 37.8°F3.2°C 58% 9.9 mph W15.9 kmh W 12.2 mph19.6 kmh 29.65 in1004.1 mb 0.00 in0.0 mm 0.00 in0.0 mm 0.00 in0.0 mm
08:20 AM 52.2°F11.2°C 37.8°F3.2°C 58% 6.1 mph W9.8 kmh W 7.5 mph12.1 kmh 29.65 in1004.1 mb 0.00 in0.0 mm 0.00 in0.0 mm 0.00 in0.0 mm
08:30 AM 52.5°F11.4°C 38.6°F3.7°C 59% 6.1 mph W9.8 kmh W 7.5 mph12.1 kmh 29.65 in1004.1 mb 0.00 in0.0 mm 0.00 in0.0 mm 0.00 in0.0 mm
08:40 AM 52.9°F11.6°C 38.5°F3.6°C 58% 13.4 mph NNW21.6 kmh NNW 16.5 mph26.6 kmh 29.65 in1004.1 mb 0.00 in0.0 mm 0.00 in0.0 mm 0.00 in0.0 mm
08:50 AM 52.9°F11.6°C 38.5°F3.6°C 58% 15.9 mph W25.6 kmh W 20.4 mph32.8 kmh 29.65 in1004.1 mb 0.00 in0.0 mm 0.00 in0.0 mm 0.00 in0.0 mm
09:00 AM 52.5°F11.4°C 39.5°F4.2°C 61% 16.6 mph W26.7 kmh W 20.4 mph32.8 kmh 29.62 in1003.0 mb 0.00 in0.0 mm 0.00 in0.0 mm 0.00 in0.0 mm
09:10 AM 51.6°F10.9°C 39.8°F4.3°C 64% 13.4 mph NW21.6 kmh NW 16.5 mph26.6 kmh 29.62 in1003.0 mb 0.00 in0.0 mm 0.00 in0.0 mm 0.00 in0.0 mm
09:20 AM 51.1°F10.6°C 39.3°F4.1°C 64% 13.4 mph NW21.6 kmh NW 16.5 mph26.6 kmh 29.62 in1003.0 mb 0.00 in0.0 mm 0.00 in0.0 mm 0.00 in0.0 mm
09:30 AM 51.6°F10.9°C 39.8°F4.3°C 64% 11.5 mph WNW18.5 kmh WNW 16.5 mph26.6 kmh 29.62 in1003.0 mb 0.00 in0.0 mm 0.00 in0.0 mm 0.00 in0.0 mm
09:40 AM 52.2°F11.2°C 40.7°F4.8°C 65% 12.1 mph WNW19.5 kmh WNW 27.9 mph44.9 kmh 29.62 in1003.0 mb 0.00 in0.0 mm 0.00 in0.0 mm 0.00 in0.0 mm
09:50 AM 51.6°F10.9°C 40.2°F4.6°C 65% 19.5 mph NW31.4 kmh NW 29.0 mph46.7 kmh 29.62 in1003.0 mb 0.05 in1.3 mm 0.30 in7.6 mm 0.05 in1.3 mm
10:00 AM 50.0°F10.0°C 39.5°F4.2°C 67% 23.6 mph NW38.0 kmh NW 29.0 mph46.7 kmh 29.62 in1003.0 mb 0.05 in1.3 mm 0.00 in0.0 mm 0.05 in1.3 mm
10:10 AM 50.0°F10.0°C 41.0°F5.0°C 71% 9.4 mph WNW15.1 kmh WNW 29.0 mph46.7 kmh 29.62 in1003.0 mb 0.05 in1.3 mm 0.00 in0.0 mm 0.05 in1.3 mm
10:20 AM 50.7°F10.4°C 43.1°F6.2°C 75% 10.6 mph W17.1 kmh W 16.8 mph27.0 kmh 29.62 in1003.0 mb 0.05 in1.3 mm 0.00 in0.0 mm 0.05 in1.3 mm
10:30 AM 51.4°F10.8°C 42.7°F5.9°C 72% 11.4 mph WNW18.3 kmh WNW 15.4 mph24.8 kmh 29.62 in1003.0 mb 0.05 in1.3 mm 0.00 in0.0 mm 0.05 in1.3 mm
10:40 AM 51.8°F11.0°C 42.3°F5.7°C 70% 12.5 mph W20.1 kmh W 15.4 mph24.8 kmh 29.59 in1002.0 mb 0.05 in1.3 mm 0.00 in0.0 mm 0.05 in1.3 mm
10:50 AM 51.4°F10.8°C 40.8°F4.9°C 67% 12.5 mph W20.1 kmh W 15.4 mph24.8 kmh 29.59 in1002.0 mb 0.00 in0.0 mm 0.00 in0.0 mm 0.05 in1.3 mm
11:00 AM 52.0°F11.1°C 40.6°F4.8°C 65% 8.9 mph NW14.3 kmh NW 13.6 mph21.9 kmh 29.59 in1002.0 mb 0.00 in0.0 mm 0.00 in0.0 mm 0.05 in1.3 mm
11:10 AM 52.0°F11.1°C 41.4°F5.2°C 67% 11.1 mph NW17.9 kmh NW 13.6 mph21.9 kmh 29.62 in1003.0 mb 0.00 in0.0 mm 0.00 in0.0 mm 0.05 in1.3 mm
11:20 AM 51.8°F11.0°C 40.8°F4.9°C 66% 11.1 mph NW17.9 kmh NW 13.6 mph21.9 kmh 29.62 in1003.0 mb 0.00 in0.0 mm 0.00 in0.0 mm 0.05 in1.3 mm
11:30 AM 50.5°F10.3°C 38.4°F3.6°C 63% 11.1 mph NW17.9 kmh NW 13.6 mph21.9 kmh 29.62 in1003.0 mb 0.00 in0.0 mm 0.00 in0.0 mm 0.05 in1.3 mm
11:40 AM 49.1°F9.5°C 37.0°F2.8°C 63% 11.1 mph NW17.9 kmh NW 13.6 mph21.9 kmh 29.65 in1004.1 mb 0.00 in0.0 mm 0.00 in0.0 mm 0.05 in1.3 mm
11:50 AM 47.5°F8.6°C 36.3°F2.4°C 65% 14.2 mph NW22.9 kmh NW 17.5 mph28.2 kmh 29.65 in1004.1 mb 0.05 in1.3 mm 0.30 in7.6 mm 0.09 in2.3 mm
12:00 PM 47.1°F8.4°C 36.7°F2.6°C 67% 14.2 mph NW22.9 kmh NW 17.5 mph28.2 kmh 29.62 in1003.0 mb 0.05 in1.3 mm 0.00 in0.0 mm 0.09 in2.3 mm
12:10 PM 47.5°F8.6°C 38.2°F3.4°C 70% 14.2 mph NW22.9 kmh NW 17.5 mph28.2 kmh 29.62 in1003.0 mb 0.05 in1.3 mm 0.00 in0.0 mm 0.09 in2.3 mm
12:20 PM 48.0°F8.9°C 39.4°F4.1°C 72% 14.2 mph NW22.9 kmh NW 17.5 mph28.2 kmh 29.62 in1003.0 mb 0.05 in1.3 mm 0.00 in0.0 mm 0.09 in2.3 mm
12:30 PM 48.2°F9.0°C 39.2°F4.0°C 71% 14.2 mph NW22.9 kmh NW 17.5 mph28.2 kmh 29.62 in1003.0 mb 0.05 in1.3 mm 0.00 in0.0 mm 0.09 in2.3 mm
12:40 PM 48.6°F9.2°C 39.6°F4.2°C 71% 7.9 mph W12.7 kmh W 9.7 mph15.6 kmh 29.59 in1002.0 mb 0.05 in1.3 mm 0.00 in0.0 mm 0.09 in2.3 mm
12:50 PM 49.6°F9.8°C 41.0°F5.0°C 72% 7.3 mph NW11.7 kmh NW 12.9 mph20.8 kmh 29.59 in1002.0 mb 0.00 in0.0 mm 0.00 in0.0 mm 0.09 in2.3 mm
01:00 PM 50.5°F10.3°C 40.4°F4.7°C 68% 10.5 mph W16.9 kmh W 12.9 mph20.8 kmh 29.59 in1002.0 mb 0.00 in0.0 mm 0.00 in0.0 mm 0.09 in2.3 mm
01:10 PM 51.4°F10.8°C 40.1°F4.5°C 65% 11.2 mph NW18.0 kmh NW 19.3 mph31.1 kmh 29.62 in1003.0 mb 0.00 in0.0 mm 0.00 in0.0 mm 0.09 in2.3 mm
01:20 PM 51.8°F11.0°C 39.2°F4.0°C 62% 11.2 mph NW18.0 kmh NW 30.4 mph48.9 kmh 29.62 in1003.0 mb 0.00 in0.0 mm 0.00 in0.0 mm 0.09 in2.3 mm
01:30 PM 52.5°F11.4°C 40.3°F4.6°C 63% 13.1 mph NNW21.1 kmh NNW 30.4 mph48.9 kmh 29.62 in1003.0 mb 0.00 in0.0 mm 0.00 in0.0 mm 0.09 in2.3 mm
01:40 PM 53.1°F11.7°C 40.8°F4.9°C 63% 8.1 mph NNW13.0 kmh NNW 16.8 mph27.0 kmh 29.62 in1003.0 mb 0.00 in0.0 mm 0.00 in0.0 mm 0.09 in2.3 mm
01:50 PM 53.2°F11.8°C 39.7°F4.3°C 60% 17.3 mph NW27.8 kmh NW 27.9 mph44.9 kmh 29.62 in1003.0 mb 0.00 in0.0 mm 0.00 in0.0 mm 0.09 in2.3 mm
02:00 PM 53.6°F12.0°C 39.2°F4.0°C 58% 22.7 mph NW36.5 kmh NW 27.9 mph44.9 kmh 29.62 in1003.0 mb 0.00 in0.0 mm 0.00 in0.0 mm 0.09 in2.3 mm
02:10 PM 53.8°F12.1°C 38.9°F3.8°C 57% 22.7 mph NW36.5 kmh NW 27.9 mph44.9 kmh 29.62 in1003.0 mb 0.00 in0.0 mm 0.00 in0.0 mm 0.09 in2.3 mm
02:20 PM 53.6°F12.0°C 38.3°F3.5°C 56% 26.2 mph NNW42.2 kmh NNW 32.2 mph51.8 kmh 29.62 in1003.0 mb 0.00 in0.0 mm 0.00 in0.0 mm 0.09 in2.3 mm
02:30 PM 53.1°F11.7°C 37.3°F2.9°C 55% 26.2 mph NNW42.2 kmh NNW 32.2 mph51.8 kmh 29.65 in1004.1 mb 0.00 in0.0 mm 0.00 in0.0 mm 0.09 in2.3 mm
02:40 PM 53.4°F11.9°C 37.6°F3.1°C 55% 9.9 mph NW15.9 kmh NW 12.2 mph19.6 kmh 29.65 in1004.1 mb 0.00 in0.0 mm 0.00 in0.0 mm 0.09 in2.3 mm
02:50 PM 53.1°F11.7°C 37.3°F2.9°C 55% 9.9 mph NW15.9 kmh NW 12.2 mph19.6 kmh 29.65 in1004.1 mb 0.00 in0.0 mm 0.00 in0.0 mm 0.09 in2.3 mm
03:00 PM 53.1°F11.7°C 36.8°F2.7°C 54% 9.9 mph NW15.9 kmh NW 12.2 mph19.6 kmh 29.65 in1004.1 mb 0.00 in0.0 mm 0.00 in0.0 mm 0.09 in2.3 mm
03:10 PM 53.6°F12.0°C 37.8°F3.2°C 55% 22.4 mph N36.0 kmh N 27.6 mph44.4 kmh 29.65 in1004.1 mb 0.00 in0.0 mm 0.00 in0.0 mm 0.09 in2.3 mm
03:20 PM 53.6°F12.0°C 37.3°F2.9°C 54% 22.4 mph N36.0 kmh N 27.6 mph44.4 kmh 29.65 in1004.1 mb 0.00 in0.0 mm 0.00 in0.0 mm 0.09 in2.3 mm
03:30 PM 53.2°F11.8°C 36.5°F2.5°C 53% 12.1 mph E19.5 kmh E 27.6 mph44.4 kmh 29.65 in1004.1 mb 0.00 in0.0 mm 0.00 in0.0 mm 0.09 in2.3 mm
03:40 PM 53.2°F11.8°C 36.5°F2.5°C 53% 11.1 mph ESE17.9 kmh ESE 13.6 mph21.9 kmh 29.65 in1004.1 mb 0.00 in0.0 mm 0.00 in0.0 mm 0.09 in2.3 mm
03:50 PM 53.2°F11.8°C 37.0°F2.8°C 54% 11.1 mph ESE17.9 kmh ESE 13.6 mph21.9 kmh 29.65 in1004.1 mb 0.00 in0.0 mm 0.00 in0.0 mm 0.09 in2.3 mm
04:00 PM 53.2°F11.8°C 36.5°F2.5°C 53% 11.1 mph ESE17.9 kmh ESE 13.6 mph21.9 kmh 29.65 in1004.1 mb 0.00 in0.0 mm 0.00 in0.0 mm 0.09 in2.3 mm
04:10 PM 53.4°F11.9°C 36.7°F2.6°C 53% 11.1 mph ESE17.9 kmh ESE 13.6 mph21.9 kmh 29.65 in1004.1 mb 0.00 in0.0 mm 0.00 in0.0 mm 0.09 in2.3 mm
04:20 PM 53.4°F11.9°C 37.2°F2.9°C 54% 11.1 mph ESE17.9 kmh ESE 13.6 mph21.9 kmh 29.65 in1004.1 mb 0.00 in0.0 mm 0.00 in0.0 mm 0.09 in2.3 mm
04:30 PM 53.4°F11.9°C 36.7°F2.6°C 53% 11.1 mph ESE17.9 kmh ESE 13.6 mph21.9 kmh 29.65 in1004.1 mb 0.00 in0.0 mm 0.00 in0.0 mm 0.09 in2.3 mm
04:40 PM 50.9°F10.5°C 34.4°F1.3°C 53% 21.5 mph N34.6 kmh N 26.5 mph42.6 kmh 29.71 in1006.1 mb 0.00 in0.0 mm 0.00 in0.0 mm 0.09 in2.3 mm
04:50 PM 49.6°F9.8°C 33.7°F0.9°C 54% 21.5 mph N34.6 kmh N 26.5 mph42.6 kmh 29.71 in1006.1 mb 0.00 in0.0 mm 0.00 in0.0 mm 0.09 in2.3 mm
05:00 PM 48.9°F9.4°C 33.4°F0.8°C 55% 21.5 mph N34.6 kmh N 26.5 mph42.6 kmh 29.71 in1006.1 mb 0.00 in0.0 mm 0.00 in0.0 mm 0.09 in2.3 mm
05:10 PM 48.7°F9.3°C 33.7°F0.9°C 56% 21.5 mph N34.6 kmh N 26.5 mph42.6 kmh 29.71 in1006.1 mb 0.00 in0.0 mm 0.00 in0.0 mm 0.09 in2.3 mm
05:20 PM 48.6°F9.2°C 34.0°F1.1°C 57% 21.5 mph N34.6 kmh N 26.5 mph42.6 kmh 29.71 in1006.1 mb 0.00 in0.0 mm 0.00 in0.0 mm 0.09 in2.3 mm
05:30 PM 48.2°F9.0°C 34.1°F1.2°C 58% 21.5 mph N34.6 kmh N 26.5 mph42.6 kmh 29.71 in1006.1 mb 0.00 in0.0 mm 0.00 in0.0 mm 0.09 in2.3 mm
05:40 PM 47.8°F8.8°C 34.6°F1.4°C 60% 21.5 mph N34.6 kmh N 26.5 mph42.6 kmh 29.68 in1005.1 mb 0.00 in0.0 mm 0.00 in0.0 mm 0.09 in2.3 mm
05:50 PM 47.5°F8.6°C 34.7°F1.5°C 61% 21.5 mph N34.6 kmh N 26.5 mph42.6 kmh 29.68 in1005.1 mb 0.00 in0.0 mm 0.00 in0.0 mm 0.09 in2.3 mm
06:00 PM 47.3°F8.5°C 34.5°F1.4°C 61% 21.5 mph N34.6 kmh N 26.5 mph42.6 kmh 29.71 in1006.1 mb 0.00 in0.0 mm 0.00 in0.0 mm 0.09 in2.3 mm
06:10 PM 47.1°F8.4°C 34.8°F1.6°C 62% 21.5 mph N34.6 kmh N 26.5 mph42.6 kmh 29.74 in1007.1 mb 0.00 in0.0 mm 0.00 in0.0 mm 0.09 in2.3 mm
06:20 PM 46.9°F8.3°C 34.6°F1.4°C 62% 21.5 mph N34.6 kmh N 26.5 mph42.6 kmh 29.74 in1007.1 mb 0.00 in0.0 mm 0.00 in0.0 mm 0.09 in2.3 mm
06:30 PM 46.9°F8.3°C 34.6°F1.4°C 62% 21.5 mph N34.6 kmh N 26.5 mph42.6 kmh 29.77 in1008.1 mb 0.00 in0.0 mm 0.00 in0.0 mm 0.09 in2.3 mm
06:40 PM 46.9°F8.3°C 35.0°F1.7°C 63% 21.5 mph N34.6 kmh N 26.5 mph42.6 kmh 29.77 in1008.1 mb 0.00 in0.0 mm 0.00 in0.0 mm 0.09 in2.3 mm
06:50 PM 46.6°F8.1°C 34.7°F1.5°C 63% 21.5 mph N34.6 kmh N 26.5 mph42.6 kmh 29.77 in1008.1 mb 0.00 in0.0 mm 0.00 in0.0 mm 0.09 in2.3 mm
07:00 PM 46.2°F7.9°C 34.3°F1.3°C 63% 21.5 mph N34.6 kmh N 26.5 mph42.6 kmh 29.74 in1007.1 mb 0.00 in0.0 mm 0.00 in0.0 mm 0.09 in2.3 mm
07:10 PM 46.0°F7.8°C 34.5°F1.4°C 64% 21.5 mph N34.6 kmh N 26.5 mph42.6 kmh 29.77 in1008.1 mb 0.00 in0.0 mm 0.00 in0.0 mm 0.09 in2.3 mm
07:20 PM 45.9°F7.7°C 34.8°F1.6°C 65% 21.5 mph N34.6 kmh N 26.5 mph42.6 kmh 29.77 in1008.1 mb 0.00 in0.0 mm 0.00 in0.0 mm 0.09 in2.3 mm
07:30 PM 45.7°F7.6°C 35.0°F1.7°C 66% 21.5 mph N34.6 kmh N 26.5 mph42.6 kmh 29.80 in1009.1 mb 0.00 in0.0 mm 0.00 in0.0 mm 0.09 in2.3 mm
07:40 PM 45.7°F7.6°C 35.3°F1.8°C 67% 21.5 mph N34.6 kmh N 26.5 mph42.6 kmh 29.80 in1009.1 mb 0.00 in0.0 mm 0.00 in0.0 mm 0.09 in2.3 mm
07:50 PM 45.7°F7.6°C 35.3°F1.8°C 67% 21.5 mph N34.6 kmh N 26.5 mph42.6 kmh 29.80 in1009.1 mb 0.00 in0.0 mm 0.00 in0.0 mm 0.09 in2.3 mm
08:00 PM 45.5°F7.5°C 35.5°F1.9°C 68% 21.5 mph N34.6 kmh N 26.5 mph42.6 kmh 29.80 in1009.1 mb 0.00 in0.0 mm 0.00 in0.0 mm 0.09 in2.3 mm
08:10 PM 45.3°F7.4°C 35.4°F1.9°C 68% 21.5 mph N34.6 kmh N 26.5 mph42.6 kmh 29.83 in1010.2 mb 0.00 in0.0 mm 0.00 in0.0 mm 0.09 in2.3 mm
08:20 PM 45.1°F7.3°C 34.8°F1.6°C 67% 21.5 mph N34.6 kmh N 26.5 mph42.6 kmh 29.83 in1010.2 mb 0.00 in0.0 mm 0.00 in0.0 mm 0.09 in2.3 mm
08:30 PM 44.8°F7.1°C 34.5°F1.4°C 67% 21.5 mph N34.6 kmh N 26.5 mph42.6 kmh 29.83 in1010.2 mb 0.00 in0.0 mm 0.00 in0.0 mm 0.09 in2.3 mm
08:40 PM 44.4°F6.9°C 34.5°F1.4°C 68% 21.5 mph N34.6 kmh N 26.5 mph42.6 kmh 29.80 in1009.1 mb 0.00 in0.0 mm 0.00 in0.0 mm 0.09 in2.3 mm
08:50 PM 44.1°F6.7°C 34.2°F1.2°C 68% 21.5 mph N34.6 kmh N 26.5 mph42.6 kmh 29.80 in1009.1 mb 0.00 in0.0 mm 0.00 in0.0 mm 0.09 in2.3 mm
09:00 PM 43.7°F6.5°C 33.8°F1.0°C 68% 21.5 mph N34.6 kmh N 26.5 mph42.6 kmh 29.83 in1010.2 mb 0.00 in0.0 mm 0.00 in0.0 mm 0.09 in2.3 mm
09:10 PM 43.5°F6.4°C 34.0°F1.1°C 69% 21.5 mph N34.6 kmh N 26.5 mph42.6 kmh 29.86 in1011.2 mb 0.00 in0.0 mm 0.00 in0.0 mm 0.09 in2.3 mm
09:20 PM 43.2°F6.2°C 33.7°F0.9°C 69% 21.5 mph N34.6 kmh N 26.5 mph42.6 kmh 29.86 in1011.2 mb 0.00 in0.0 mm 0.00 in0.0 mm 0.09 in2.3 mm
09:30 PM 42.8°F6.0°C 33.7°F0.9°C 70% 21.5 mph N34.6 kmh N 26.5 mph42.6 kmh 29.86 in1011.2 mb 0.00 in0.0 mm 0.00 in0.0 mm 0.09 in2.3 mm
09:40 PM 42.8°F6.0°C 34.0°F1.1°C 71% 21.5 mph N34.6 kmh N 26.5 mph42.6 kmh 29.86 in1011.2 mb 0.00 in0.0 mm 0.00 in0.0 mm 0.09 in2.3 mm
09:50 PM 42.6°F5.9°C 34.2°F1.2°C 72% 21.5 mph N34.6 kmh N 26.5 mph42.6 kmh 29.86 in1011.2 mb 0.00 in0.0 mm 0.00 in0.0 mm 0.09 in2.3 mm
10:00 PM 42.8°F6.0°C 34.7°F1.5°C 73% 21.5 mph N34.6 kmh N 26.5 mph42.6 kmh 29.89 in1012.2 mb 0.00 in0.0 mm 0.00 in0.0 mm 0.09 in2.3 mm
10:10 PM 43.0°F6.1°C 35.3°F1.8°C 74% 21.5 mph N34.6 kmh N 26.5 mph42.6 kmh 29.89 in1012.2 mb 0.00 in0.0 mm 0.00 in0.0 mm 0.09 in2.3 mm
10:20 PM 43.0°F6.1°C 35.3°F1.8°C 74% 21.5 mph N34.6 kmh N 26.5 mph42.6 kmh 29.89 in1012.2 mb 0.00 in0.0 mm 0.00 in0.0 mm 0.09 in2.3 mm
10:30 PM 42.8°F6.0°C 35.1°F1.7°C 74% 21.5 mph N34.6 kmh N 26.5 mph42.6 kmh 29.89 in1012.2 mb 0.00 in0.0 mm 0.00 in0.0 mm 0.09 in2.3 mm
10:40 PM 42.8°F6.0°C 35.1°F1.7°C 74% 21.5 mph N34.6 kmh N 26.5 mph42.6 kmh 29.89 in1012.2 mb 0.00 in0.0 mm 0.00 in0.0 mm 0.09 in2.3 mm
10:50 PM 42.8°F6.0°C 35.1°F1.7°C 74% 21.5 mph N34.6 kmh N 26.5 mph42.6 kmh 29.89 in1012.2 mb 0.00 in0.0 mm 0.00 in0.0 mm 0.09 in2.3 mm
11:00 PM 42.6°F5.9°C 34.9°F1.6°C 74% 21.5 mph N34.6 kmh N 26.5 mph42.6 kmh 29.89 in1012.2 mb 0.00 in0.0 mm 0.00 in0.0 mm 0.10 in2.5 mm
11:10 PM 42.4°F5.8°C 34.7°F1.5°C 74% 21.5 mph N34.6 kmh N 26.5 mph42.6 kmh 29.89 in1012.2 mb 0.00 in0.0 mm 0.00 in0.0 mm 0.10 in2.5 mm
11:20 PM 42.3°F5.7°C 34.6°F1.4°C 74% 21.5 mph N34.6 kmh N 26.5 mph42.6 kmh 29.89 in1012.2 mb 0.00 in0.0 mm 0.00 in0.0 mm 0.10 in2.5 mm
11:30 PM 42.3°F5.7°C 34.9°F1.6°C 75% 21.5 mph N34.6 kmh N 26.5 mph42.6 kmh 29.89 in1012.2 mb 0.00 in0.0 mm 0.00 in0.0 mm 0.10 in2.5 mm
11:40 PM 42.4°F5.8°C 35.1°F1.7°C 75% 21.5 mph N34.6 kmh N 26.5 mph42.6 kmh 29.86 in1011.2 mb 0.00 in0.0 mm 0.00 in0.0 mm 0.10 in2.5 mm
11:50 PM 42.4°F5.8°C 35.1°F1.7°C 75% 21.5 mph N34.6 kmh N 26.5 mph42.6 kmh 29.86 in1011.2 mb 0.00 in0.0 mm 0.00 in0.0 mm 0.10 in2.5 mm